Time;durP1;ratioP1;P1;durP2;ratioP2;P2;SDS_P1;SDS_P2;PMS_P1;PMS_P2;Temp;Humidity;BMP_temperature;BMP_pressure;BME280_temperature;BME280_humidity;BME280_pressure;Samples;Min_cycle;Max_cycle;Signal;HPM_P1;HPM_P2
2021/11/06 00:00:34;;;;;;;3.90;2.40;;;9.10;84.80;;;;;;5107605;28;20555;-79
2021/11/06 00:02:59;;;;;;;4.95;2.67;;;9.00;84.70;;;;;;5107798;28;20059;-78
2021/11/06 00:05:25;;;;;;;4.72;2.60;;;9.00;84.60;;;;;;5107545;28;20067;-79
2021/11/06 00:07:51;;;;;;;5.18;2.65;;;9.00;84.50;;;;;;5107616;28;20029;-78
2021/11/06 00:10:17;;;;;;;5.78;2.78;;;9.00;84.60;;;;;;5107498;28;20056;-79
2021/11/06 00:12:43;;;;;;;4.68;2.60;;;8.90;84.50;;;;;;5074987;28;20107;-78
2021/11/06 00:15:09;;;;;;;5.88;2.80;;;8.90;84.50;;;;;;5107445;28;20032;-79
2021/11/06 00:17:36;;;;;;;6.03;3.40;;;8.90;84.50;;;;;;5073456;28;20480;-78
2021/11/06 00:20:03;;;;;;;5.90;2.78;;;8.90;84.60;;;;;;5107361;28;20033;-79
2021/11/06 00:22:29;;;;;;;3.22;2.60;;;8.80;84.60;;;;;;5075973;28;20036;-79
2021/11/06 00:24:54;;;;;;;6.10;2.50;;;8.80;84.70;;;;;;5107100;28;20024;-78
2021/11/06 00:27:20;;;;;;;6.15;2.95;;;8.80;84.70;;;;;;5107161;28;20032;-78
2021/11/06 00:29:46;;;;;;;4.32;2.92;;;8.80;84.70;;;;;;5107245;28;20028;-78
2021/11/06 00:32:11;;;;;;;6.30;2.88;;;8.70;84.70;;;;;;5107249;28;20039;-79
2021/11/06 00:34:37;;;;;;;6.40;3.10;;;8.70;84.70;;;;;;5107123;28;20045;-78
2021/11/06 00:37:03;;;;;;;5.38;3.20;;;8.70;84.70;;;;;;5107556;28;20521;-78
2021/11/06 00:39:29;;;;;;;6.40;3.20;;;8.70;84.70;;;;;;5093101;28;20028;-78
2021/11/06 00:41:54;;;;;;;5.28;2.90;;;8.60;84.70;;;;;;5107331;28;20397;-77
2021/11/06 00:44:22;;;;;;;5.35;2.80;;;8.60;84.80;;;;;;5074765;28;20437;-78
2021/11/06 00:46:48;;;;;;;5.80;2.95;;;8.60;84.90;;;;;;5106988;28;20039;-77
2021/11/06 00:49:14;;;;;;;6.22;3.60;;;8.60;84.90;;;;;;5106593;28;20021;-77
2021/11/06 00:51:40;;;;;;;4.80;2.83;;;8.60;84.80;;;;;;5090772;28;20025;-77
2021/11/06 00:54:05;;;;;;;7.82;3.20;;;8.70;84.80;;;;;;5107270;28;20037;-77
2021/11/06 00:56:31;;;;;;;6.55;3.40;;;8.70;84.80;;;;;;5107438;28;20123;-78
2021/11/06 00:58:57;;;;;;;4.90;2.95;;;8.70;84.80;;;;;;5107422;28;20116;-78
2021/11/06 01:01:22;;;;;;;6.13;3.63;;;8.70;84.80;;;;;;5106850;28;20190;-78
2021/11/06 01:03:48;;;;;;;5.90;3.60;;;8.70;84.70;;;;;;5107126;28;20488;-78
2021/11/06 01:06:15;;;;;;;5.10;3.20;;;8.60;84.60;;;;;;5093038;28;20033;-78
2021/11/06 01:08:43;;;;;;;6.47;3.47;;;8.70;84.60;;;;;;5074599;28;20028;-78
2021/11/06 01:11:09;;;;;;;6.68;3.60;;;8.70;84.60;;;;;;5107203;28;20070;-78
2021/11/06 01:13:35;;;;;;;8.85;3.83;;;8.70;84.60;;;;;;5107423;28;20082;-78
2021/11/06 01:16:04;;;;;;;4.88;3.55;;;8.60;84.40;;;;;;5107261;28;20032;-77
2021/11/06 01:18:30;;;;;;;4.30;3.45;;;8.60;84.50;;;;;;5106417;28;20077;-77
2021/11/06 01:20:56;;;;;;;5.75;4.32;;;8.60;84.60;;;;;;5089790;28;20028;-78
2021/11/06 01:23:22;;;;;;;7.25;3.88;;;8.60;85.20;;;;;;5073483;28;20553;-78
2021/11/06 01:25:48;;;;;;;5.63;3.85;;;8.60;84.40;;;;;;5073546;28;20028;-77
2021/11/06 01:28:13;;;;;;;7.45;4.25;;;8.60;84.50;;;;;;5089051;28;20514;-77
2021/11/06 01:30:39;;;;;;;7.15;4.10;;;8.60;84.50;;;;;;5089104;28;20119;-78
2021/11/06 01:36:27;;;;;;;6.15;4.30;;;8.70;84.30;;;;;;5073727;28;20089;-78
2021/11/06 01:38:53;;;;;;;5.82;4.20;;;8.70;84.20;;;;;;5073286;28;20032;-79
2021/11/06 01:41:18;;;;;;;7.93;4.32;;;8.80;84.30;;;;;;5105697;28;20400;-77
2021/11/06 01:43:44;;;;;;;8.30;4.32;;;8.80;84.20;;;;;;5105695;28;20116;-77
2021/11/06 01:46:10;;;;;;;6.57;4.40;;;8.80;84.10;;;;;;5105655;28;20032;-77
2021/11/06 01:48:36;;;;;;;8.13;5.10;;;8.80;84.10;;;;;;5105670;28;20036;-77
2021/11/06 01:51:03;;;;;;;7.72;5.35;;;8.80;84.00;;;;;;5088713;28;20039;-78
2021/11/06 01:53:29;;;;;;;9.82;4.97;;;8.80;84.00;;;;;;5088669;28;20393;-78
2021/11/06 01:55:56;;;;;;;8.45;5.35;;;8.80;84.00;;;;;;5088561;28;20027;-78
2021/11/06 01:58:24;;;;;;;8.32;4.75;;;8.80;83.90;;;;;;5088606;28;20400;-77
2021/11/06 02:00:50;;;;;;;7.90;4.95;;;8.80;83.90;;;;;;5088444;28;20515;-77
2021/11/06 02:03:16;;;;;;;6.72;4.82;;;8.80;84.50;;;;;;5088441;28;20108;-78
2021/11/06 02:05:43;;;;;;;6.30;4.50;;;8.80;83.90;;;;;;5088635;28;20484;-79
2021/11/06 02:08:10;;;;;;;8.52;5.03;;;8.80;83.80;;;;;;5088500;28;20017;-79
2021/11/06 02:10:35;;;;;;;8.82;5.00;;;8.80;83.80;;;;;;5088771;28;20023;-78
2021/11/06 02:13:01;;;;;;;9.68;5.07;;;8.80;83.70;;;;;;5088468;28;20483;-78
2021/11/06 02:15:27;;;;;;;9.18;5.43;;;8.90;83.70;;;;;;5088372;28;20024;-78
2021/11/06 02:17:53;;;;;;;7.43;4.80;;;8.90;83.60;;;;;;5088389;28;20086;-79
2021/11/06 02:20:20;;;;;;;7.53;5.18;;;8.90;83.60;;;;;;5088324;28;20024;-79
2021/11/06 02:22:46;;;;;;;7.78;4.60;;;8.90;83.60;;;;;;5088409;28;20016;-79
2021/11/06 02:25:14;;;;;;;7.68;5.30;;;8.80;83.50;;;;;;5072772;28;20535;-79
2021/11/06 02:27:40;;;;;;;9.15;5.20;;;8.90;83.60;;;;;;5088504;28;20017;-79
2021/11/06 02:30:09;;;;;;;7.32;4.70;;;8.90;83.60;;;;;;5088351;28;20026;-78
2021/11/06 02:32:35;;;;;;;9.70;5.28;;;8.90;83.50;;;;;;5088317;28;20092;-78
2021/11/06 02:35:01;;;;;;;11.20;5.13;;;8.90;83.50;;;;;;5088578;28;20028;-78
2021/11/06 02:37:27;;;;;;;8.77;5.57;;;8.90;83.50;;;;;;5088410;28;20021;-78
2021/11/06 02:39:53;;;;;;;8.40;5.47;;;8.90;83.30;;;;;;5088240;28;20051;-78
2021/11/06 02:42:19;;;;;;;10.02;5.90;;;8.90;83.40;;;;;;5088098;28;20024;-78
2021/11/06 02:44:46;;;;;;;10.40;5.70;;;8.90;83.40;;;;;;5072455;28;20528;-77
2021/11/06 02:47:12;;;;;;;9.48;5.75;;;8.90;83.30;;;;;;5088248;28;20480;-78
2021/11/06 02:49:38;;;;;;;9.73;5.68;;;8.90;83.30;;;;;;5088169;28;20021;-78
2021/11/06 02:52:05;;;;;;;11.57;6.05;;;8.90;83.30;;;;;;5088169;28;20031;-78
2021/11/06 02:54:30;;;;;;;12.95;6.22;;;8.90;83.20;;;;;;5088106;28;20042;-78
2021/11/06 02:56:56;;;;;;;14.32;7.05;;;8.90;83.30;;;;;;5088148;28;20084;-79
2021/11/06 02:59:22;;;;;;;13.77;6.60;;;8.80;83.30;;;;;;5088032;28;20021;-78
2021/11/06 03:01:48;;;;;;;13.68;6.35;;;8.90;83.30;;;;;;5088232;28;20037;-79
2021/11/06 03:04:14;;;;;;;16.45;6.35;;;8.90;83.30;;;;;;5088192;28;20090;-78
2021/11/06 03:06:41;;;;;;;16.58;7.65;;;8.90;83.90;;;;;;5088550;28;20111;-78
2021/11/06 03:09:08;;;;;;;15.35;7.18;;;8.90;83.20;;;;;;5088071;28;20017;-79
2021/11/06 03:11:35;;;;;;;17.95;8.27;;;8.80;83.20;;;;;;5090162;28;20052;-78
2021/11/06 03:14:06;;;;;;;20.60;8.43;;;8.90;83.20;;;;;;5091854;28;20082;-79
2021/11/06 03:16:31;;;;;;;17.00;8.20;;;8.90;83.20;;;;;;5091571;28;20021;-78
2021/11/06 03:18:57;;;;;;;15.57;7.63;;;8.90;83.20;;;;;;5091554;28;20027;-78
2021/11/06 03:21:23;;;;;;;21.63;8.52;;;8.90;83.10;;;;;;5091548;28;20021;-79
2021/11/06 03:23:49;;;;;;;15.95;8.02;;;8.90;83.00;;;;;;5091410;28;20115;-78
2021/11/06 03:26:15;;;;;;;21.02;8.63;;;8.90;83.00;;;;;;5091392;28;20044;-78
2021/11/06 03:28:41;;;;;;;16.40;8.10;;;8.90;82.90;;;;;;5074597;28;20059;-77
2021/11/06 03:31:07;;;;;;;17.23;8.15;;;8.90;83.00;;;;;;5091193;28;20020;-77
2021/11/06 03:33:33;;;;;;;16.73;7.90;;;8.90;83.00;;;;;;5091176;28;20024;-77
2021/11/06 03:35:59;;;;;;;19.00;8.32;;;8.90;82.90;;;;;;5091179;28;20024;-78
2021/11/06 03:38:26;;;;;;;18.25;8.52;;;8.90;82.90;;;;;;5091007;28;20024;-77
2021/11/06 03:40:52;;;;;;;16.45;8.35;;;8.90;82.80;;;;;;5091120;28;20036;-78
2021/11/06 03:43:18;;;;;;;18.17;7.95;;;8.90;82.90;;;;;;5091076;28;20451;-78
2021/11/06 03:45:44;;;;;;;18.08;8.50;;;8.90;82.80;;;;;;5091082;28;20017;-78
2021/11/06 03:48:09;;;;;;;17.85;7.68;;;8.90;82.80;;;;;;5091079;28;20027;-78
2021/11/06 03:50:35;;;;;;;15.90;8.13;;;9.00;82.80;;;;;;5091072;28;20025;-78
2021/11/06 03:53:01;;;;;;;14.52;7.38;;;9.00;82.80;;;;;;5091046;28;20016;-78
2021/11/06 03:55:26;;;;;;;15.93;7.60;;;8.90;82.70;;;;;;5090949;28;20094;-79
2021/11/06 03:57:53;;;;;;;14.70;8.05;;;9.00;82.70;;;;;;5090905;28;20093;-78
2021/11/06 04:00:19;;;;;;;14.80;7.43;;;9.00;82.60;;;;;;5090821;28;20392;-79
2021/11/06 04:02:45;;;;;;;18.15;8.43;;;9.00;82.70;;;;;;5090746;28;20028;-78
2021/11/06 04:05:12;;;;;;;16.52;8.13;;;9.00;82.70;;;;;;5090707;28;20025;-79
2021/11/06 04:07:38;;;;;;;18.48;8.00;;;9.00;82.60;;;;;;5075175;28;20079;-79
2021/11/06 04:10:05;;;;;;;14.68;7.40;;;9.00;83.20;;;;;;5090633;28;20115;-78
2021/11/06 04:12:30;;;;;;;16.08;7.40;;;9.10;82.60;;;;;;5090659;28;20020;-78
2021/11/06 04:14:56;;;;;;;18.05;7.65;;;9.10;82.60;;;;;;5090463;28;20119;-80
2021/11/06 04:17:22;;;;;;;14.30;7.40;;;9.10;82.60;;;;;;5090370;28;20028;-79
2021/11/06 04:19:48;;;;;;;17.13;7.55;;;9.10;82.50;;;;;;5090382;28;20028;-78
2021/11/06 04:22:13;;;;;;;16.90;7.35;;;9.10;82.50;;;;;;5089181;28;20388;-78
2021/11/06 04:24:39;;;;;;;16.77;7.75;;;9.10;82.50;;;;;;5090193;28;20025;-78
2021/11/06 04:27:06;;;;;;;13.45;7.47;;;9.00;82.30;;;;;;5090213;28;20103;-78
2021/11/06 04:29:32;;;;;;;17.42;8.10;;;9.00;82.40;;;;;;5090135;28;20020;-77
2021/11/06 04:31:57;;;;;;;13.90;6.90;;;9.00;82.30;;;;;;5090197;28;20052;-78
2021/11/06 04:34:26;;;;;;;12.32;6.90;;;8.90;82.30;;;;;;5090099;28;20067;-78
2021/11/06 04:36:51;;;;;;;12.73;6.90;;;9.00;82.40;;;;;;5090060;28;20089;-78
2021/11/06 04:39:17;;;;;;;16.45;7.22;;;8.90;82.40;;;;;;5090014;28;20028;-78
2021/11/06 04:41:42;;;;;;;12.80;7.20;;;8.90;82.40;;;;;;5089976;28;20059;-79
2021/11/06 04:44:08;;;;;;;17.25;7.57;;;8.90;82.40;;;;;;5089679;28;20017;-79
2021/11/06 04:46:34;;;;;;;12.73;7.03;;;9.00;82.40;;;;;;5089863;28;20024;-78
2021/11/06 04:48:59;;;;;;;13.07;7.05;;;8.90;82.40;;;;;;5089776;28;20023;-78
2021/11/06 04:51:26;;;;;;;15.35;7.55;;;8.90;83.00;;;;;;5089833;28;20031;-78
2021/11/06 04:53:52;;;;;;;10.05;6.70;;;9.00;82.40;;;;;;5089754;28;20032;-79
2021/11/06 04:56:17;;;;;;;14.88;7.10;;;9.00;82.40;;;;;;5089702;28;20245;-79
2021/11/06 04:58:43;;;;;;;14.52;7.55;;;9.00;82.40;;;;;;5089564;28;20040;-79
2021/11/06 05:01:09;;;;;;;11.57;7.07;;;9.00;82.40;;;;;;5089362;28;20052;-79
2021/11/06 05:03:34;;;;;;;13.43;7.03;;;9.00;82.40;;;;;;5089392;28;20025;-78
2021/11/06 05:06:00;;;;;;;13.73;7.32;;;9.00;82.30;;;;;;5089355;28;20048;-78
2021/11/06 05:11:49;;;;;;;15.10;7.43;;;9.00;82.30;;;;;;5073997;28;20139;-78
2021/11/06 05:14:14;;;;;;;17.90;7.88;;;9.00;82.20;;;;;;5089261;28;20094;-79
2021/11/06 05:16:40;;;;;;;16.15;7.57;;;9.00;82.20;;;;;;5089217;28;20013;-78
2021/11/06 05:19:06;;;;;;;15.38;7.72;;;9.00;82.20;;;;;;5089178;28;20021;-78
2021/11/06 05:21:38;;;;;;;14.23;7.40;;;9.00;82.30;;;;;;5089113;28;20032;-78
2021/11/06 05:24:07;;;;;;;14.45;7.68;;;9.00;82.30;;;;;;5073572;28;20487;-78
2021/11/06 05:26:34;;;;;;;13.32;7.32;;;9.00;82.40;;;;;;5089088;28;20464;-78
2021/11/06 05:29:01;;;;;;;13.13;7.15;;;9.00;82.40;;;;;;5073299;28;20017;-79
2021/11/06 05:31:27;;;;;;;14.98;7.50;;;9.00;82.40;;;;;;5073542;28;20024;-78
2021/11/06 05:33:53;;;;;;;12.60;7.88;;;9.10;82.40;;;;;;5088628;28;20115;-79
2021/11/06 05:36:18;;;;;;;13.35;7.68;;;9.00;82.30;;;;;;5088841;28;20130;-78
2021/11/06 05:38:45;;;;;;;14.70;7.50;;;9.00;82.40;;;;;;5088905;28;20020;-78
2021/11/06 05:41:10;;;;;;;13.63;7.72;;;9.00;82.50;;;;;;5073374;28;20439;-78
2021/11/06 05:44:16;;;;;;;11.73;7.70;;;9.00;82.40;;;;;;5088879;28;20017;-79
2021/11/06 05:46:42;;;;;;;11.75;7.05;;;9.00;82.50;;;;;;5088611;28;20452;-78
2021/11/06 05:49:08;;;;;;;12.85;7.45;;;9.10;82.60;;;;;;5088678;28;20052;-79
2021/11/06 05:51:34;;;;;;;11.77;7.65;;;9.00;82.60;;;;;;5088736;28;20020;-78
2021/11/06 05:54:00;;;;;;;13.90;8.20;;;9.00;82.70;;;;;;5088711;28;20062;-78
2021/11/06 05:56:26;;;;;;;15.60;8.15;;;9.00;82.90;;;;;;5088552;28;20031;-79
2021/11/06 05:58:51;;;;;;;13.77;8.05;;;9.00;82.90;;;;;;5088551;28;20074;-79
2021/11/06 06:01:17;;;;;;;12.68;7.53;;;9.00;83.00;;;;;;5088402;28;20040;-79
2021/11/06 06:03:44;;;;;;;12.57;7.88;;;9.00;83.10;;;;;;5088419;28;20384;-78
2021/11/06 06:06:10;;;;;;;11.45;7.65;;;9.00;83.10;;;;;;5088531;28;20025;-79
2021/11/06 06:08:36;;;;;;;13.38;7.95;;;9.00;83.20;;;;;;5088622;28;20024;-79
2021/11/06 06:11:01;;;;;;;12.68;7.65;;;9.10;83.30;;;;;;5088638;28;20187;-78
2021/11/06 06:13:29;;;;;;;11.15;7.43;;;9.00;83.90;;;;;;5088573;28;20020;-78
2021/11/06 06:15:54;;;;;;;12.90;7.45;;;9.10;83.40;;;;;;5072926;28;20372;-78
2021/11/06 06:18:20;;;;;;;12.32;7.53;;;9.10;83.40;;;;;;5088519;28;20017;-78
2021/11/06 06:20:45;;;;;;;11.77;7.75;;;9.10;83.40;;;;;;5088403;28;20388;-78
2021/11/06 06:23:11;;;;;;;15.02;8.25;;;9.10;83.40;;;;;;5088411;28;20472;-78
2021/11/06 06:25:37;;;;;;;12.82;8.10;;;9.00;83.40;;;;;;5088551;28;20480;-78
2021/11/06 06:28:04;;;;;;;14.27;8.63;;;9.10;83.40;;;;;;5088513;28;20031;-78
2021/11/06 06:30:30;;;;;;;10.60;7.85;;;9.00;83.40;;;;;;5088434;28;20013;-77
2021/11/06 06:32:56;;;;;;;12.48;8.25;;;9.00;83.50;;;;;;5088250;28;20020;-78
2021/11/06 06:35:22;;;;;;;12.77;8.35;;;9.00;83.50;;;;;;5088380;28;20107;-78
2021/11/06 06:37:48;;;;;;;12.27;8.20;;;9.10;83.50;;;;;;5088414;28;20020;-78
2021/11/06 06:40:14;;;;;;;12.93;8.00;;;9.10;83.50;;;;;;5088170;28;20021;-79
2021/11/06 06:42:41;;;;;;;13.00;8.35;;;9.10;83.50;;;;;;5088271;28;20056;-79
2021/11/06 06:45:07;;;;;;;13.77;9.10;;;9.10;83.60;;;;;;5088108;28;20020;-78
2021/11/06 06:47:33;;;;;;;11.13;7.95;;;9.10;83.50;;;;;;5092140;28;20020;-78
2021/11/06 06:49:59;;;;;;;12.68;8.60;;;9.10;83.60;;;;;;5092193;28;20097;-78
2021/11/06 06:52:24;;;;;;;13.65;8.25;;;9.10;83.50;;;;;;5091975;28;20488;-78
2021/11/06 06:54:50;;;;;;;13.20;8.98;;;9.10;83.50;;;;;;5076673;28;20103;-78
2021/11/06 06:57:16;;;;;;;15.60;9.02;;;9.10;83.50;;;;;;5092038;28;20020;-78
2021/11/06 06:59:42;;;;;;;13.10;8.52;;;9.10;83.60;;;;;;5091912;28;20085;-78
2021/11/06 07:02:08;;;;;;;13.05;8.88;;;9.10;83.60;;;;;;5094365;28;20127;-79
2021/11/06 07:04:34;;;;;;;15.05;8.85;;;9.10;83.60;;;;;;5094287;28;20063;-78
2021/11/06 07:07:00;;;;;;;12.73;8.10;;;9.10;83.60;;;;;;5094459;28;20070;-78
2021/11/06 07:09:26;;;;;;;13.65;8.63;;;9.10;83.50;;;;;;5094292;28;20020;-78
2021/11/06 07:15:38;;;;;;;12.75;8.57;;;9.10;83.50;;;;;;5094654;28;20534;-79
2021/11/06 07:18:03;;;;;;;12.32;8.55;;;9.10;83.50;;;;;;5093930;28;20031;-78
2021/11/06 07:20:29;;;;;;;11.75;8.50;;;9.10;83.60;;;;;;5094130;28;20028;-79
2021/11/06 07:22:55;;;;;;;12.45;8.02;;;9.10;83.50;;;;;;5093955;28;20038;-78
2021/11/06 07:25:21;;;;;;;13.77;8.80;;;9.10;83.60;;;;;;5094053;28;20119;-78
2021/11/06 07:27:46;;;;;;;12.52;8.40;;;9.20;83.60;;;;;;5093883;28;20079;-78
2021/11/06 07:30:12;;;;;;;10.90;7.80;;;9.10;83.60;;;;;;5094000;28;20028;-79
2021/11/06 07:32:38;;;;;;;10.93;8.38;;;9.20;83.60;;;;;;5093987;28;20435;-80
2021/11/06 07:35:05;;;;;;;14.23;9.13;;;9.20;83.60;;;;;;5093803;28;20118;-78
2021/11/06 07:37:32;;;;;;;13.18;9.45;;;9.20;83.50;;;;;;5093906;28;20028;-79
2021/11/06 07:39:58;;;;;;;11.65;8.20;;;9.20;83.60;;;;;;5080821;28;20036;-78
2021/11/06 07:42:25;;;;;;;15.02;8.38;;;9.20;83.60;;;;;;5091153;28;20029;-79
2021/11/06 07:44:51;;;;;;;11.52;8.55;;;9.20;83.70;;;;;;5091012;28;20108;-79
2021/11/06 07:47:16;;;;;;;11.82;8.60;;;9.20;83.70;;;;;;5090972;28;20567;-79
2021/11/06 07:49:42;;;;;;;15.38;8.57;;;9.20;83.70;;;;;;5075528;28;20028;-79
2021/11/06 07:52:08;;;;;;;11.90;8.20;;;9.20;83.70;;;;;;5091198;28;20020;-79
2021/11/06 07:54:34;;;;;;;12.15;8.38;;;9.20;83.70;;;;;;5090930;28;20405;-78
2021/11/06 07:56:59;;;;;;;13.18;8.30;;;9.30;83.80;;;;;;5090666;28;20031;-78
2021/11/06 07:59:25;;;;;;;12.18;8.00;;;9.30;83.80;;;;;;5091168;28;20025;-78
2021/11/06 08:01:52;;;;;;;14.10;8.40;;;9.30;83.80;;;;;;5090698;28;20064;-79
2021/11/06 08:04:18;;;;;;;10.93;8.23;;;9.30;83.80;;;;;;5080224;28;20115;-79
2021/11/06 08:06:43;;;;;;;11.77;8.43;;;9.30;83.80;;;;;;5090850;28;20111;-79
2021/11/06 08:09:09;;;;;;;12.75;8.13;;;9.40;83.90;;;;;;5090656;28;20020;-79
2021/11/06 08:11:35;;;;;;;13.48;7.63;;;9.40;83.90;;;;;;5090789;28;20048;-79
2021/11/06 08:14:02;;;;;;;11.45;7.65;;;9.40;83.80;;;;;;5074905;28;20029;-78
2021/11/06 08:19:51;;;;;;;10.68;7.60;;;9.50;83.80;;;;;;5075278;28;20028;-79
2021/11/06 08:22:17;;;;;;;10.45;7.47;;;9.50;83.60;;;;;;5090252;28;20043;-79
2021/11/06 08:24:44;;;;;;;10.85;7.43;;;9.60;83.60;;;;;;5093245;28;20044;-78
2021/11/06 08:27:09;;;;;;;10.55;7.22;;;9.70;83.50;;;;;;5074870;28;20102;-78
2021/11/06 08:29:35;;;;;;;10.35;7.53;;;9.70;83.30;;;;;;5090269;28;20024;-79
2021/11/06 08:32:01;;;;;;;11.20;7.53;;;9.70;83.20;;;;;;5090174;28;20036;-79
2021/11/06 08:37:49;;;;;;;10.15;7.35;;;9.80;83.10;;;;;;5074624;28;20031;-79
2021/11/06 08:40:15;;;;;;;10.63;7.15;;;9.80;83.10;;;;;;5090446;28;20016;-79
2021/11/06 08:42:41;;;;;;;10.75;7.28;;;9.80;83.10;;;;;;5074492;28;20024;-79
2021/11/06 08:45:10;;;;;;;10.85;7.20;;;9.80;83.00;;;;;;5089946;28;20107;-79
2021/11/06 08:47:37;;;;;;;9.65;6.88;;;9.80;83.10;;;;;;5089961;28;20016;-78
2021/11/06 08:50:08;;;;;;;8.77;6.60;;;9.80;83.10;;;;;;5089729;28;20154;-79
2021/11/06 08:52:35;;;;;;;10.25;7.07;;;9.80;83.10;;;;;;5089788;28;20032;-78
2021/11/06 08:55:01;;;;;;;11.15;7.55;;;9.90;83.00;;;;;;5089623;28;20480;-78
2021/11/06 09:00:50;;;;;;;10.10;6.95;;;9.90;83.00;;;;;;5073473;28;20055;-79
2021/11/06 09:03:19;;;;;;;11.07;7.47;;;9.90;82.80;;;;;;5073006;28;20036;-79
2021/11/06 09:05:50;;;;;;;11.80;6.93;;;10.00;82.80;;;;;;5089837;28;20032;-78
2021/11/06 09:08:18;;;;;;;9.05;7.00;;;10.00;82.80;;;;;;5089093;28;20484;-78
2021/11/06 09:10:44;;;;;;;10.60;7.18;;;10.10;82.80;;;;;;5089279;28;20025;-78
2021/11/06 09:13:10;;;;;;;9.13;6.88;;;10.10;82.70;;;;;;5074036;28;20043;-78
2021/11/06 09:15:36;;;;;;;9.68;6.95;;;10.20;82.60;;;;;;5089690;28;20029;-78
2021/11/06 09:18:01;;;;;;;9.88;6.53;;;10.20;82.50;;;;;;5089459;28;20491;-79
2021/11/06 09:20:27;;;;;;;9.18;6.47;;;10.30;82.40;;;;;;5106231;28;20020;-78
2021/11/06 09:22:54;;;;;;;10.45;6.82;;;10.30;82.40;;;;;;5073733;28;20021;-78
2021/11/06 09:25:21;;;;;;;8.95;7.00;;;10.30;82.40;;;;;;5089211;28;20078;-79
2021/11/06 09:27:46;;;;;;;11.80;6.80;;;10.20;82.30;;;;;;5089420;28;20451;-79
2021/11/06 09:30:13;;;;;;;13.77;9.07;;;10.30;82.40;;;;;;5089449;28;20060;-79
2021/11/06 09:32:39;;;;;;;14.23;9.48;;;10.30;82.40;;;;;;5089382;28;20078;-79
2021/11/06 09:35:05;;;;;;;13.50;8.32;;;10.30;82.30;;;;;;5089402;28;20535;-80
2021/11/06 09:37:31;;;;;;;10.48;7.90;;;10.30;82.20;;;;;;5089255;28;20024;-79
2021/11/06 09:39:58;;;;;;;9.80;6.97;;;10.40;82.20;;;;;;5089178;28;20028;-79
2021/11/06 09:42:23;;;;;;;9.70;6.78;;;10.40;82.20;;;;;;5089109;28;20056;-78
2021/11/06 09:44:50;;;;;;;7.50;6.10;;;10.40;82.10;;;;;;5089060;28;20063;-79
2021/11/06 09:47:18;;;;;;;8.85;5.93;;;10.50;82.10;;;;;;5088925;28;20024;-78
2021/11/06 09:49:45;;;;;;;9.18;6.30;;;10.50;82.00;;;;;;5088950;28;20024;-79
2021/11/06 09:55:32;;;;;;;9.10;6.25;;;10.60;81.80;;;;;;5073235;28;20113;-79
2021/11/06 09:57:58;;;;;;;8.40;5.68;;;10.70;81.70;;;;;;5089006;28;20028;-79
2021/11/06 10:00:24;;;;;;;11.45;6.45;;;10.70;81.60;;;;;;5089276;28;20063;-78
2021/11/06 10:02:54;;;;;;;9.57;6.38;;;10.70;81.50;;;;;;5088704;28;20476;-78
2021/11/06 10:05:46;;;;;;;9.70;6.20;;;10.80;81.40;;;;;;5088643;28;20017;-79
2021/11/06 10:08:20;;;;;;;8.30;5.43;;;10.80;81.30;;;;;;5105821;28;20094;-79
2021/11/06 10:10:51;;;;;;;8.27;5.68;;;10.80;81.20;;;;;;5088694;28;20029;-79
2021/11/06 10:13:17;;;;;;;9.15;5.72;;;10.80;81.20;;;;;;5073137;28;20028;-78
2021/11/06 10:15:46;;;;;;;8.25;5.50;;;10.80;81.20;;;;;;5088584;28;20033;-79
2021/11/06 10:18:18;;;;;;;7.90;5.82;;;10.90;81.10;;;;;;5088660;28;20124;-79
2021/11/06 10:20:45;;;;;;;7.45;5.28;;;10.90;81.00;;;;;;5089521;28;20089;-78
2021/11/06 10:23:11;;;;;;;7.60;5.57;;;11.00;80.90;;;;;;5092807;28;20028;-78
2021/11/06 10:25:40;;;;;;;6.70;5.10;;;11.10;80.80;;;;;;5092668;28;20059;-78
2021/11/06 10:28:12;;;;;;;8.00;5.53;;;11.00;80.70;;;;;;5092829;28;20028;-77
2021/11/06 10:30:45;;;;;;;7.10;4.90;;;11.00;80.60;;;;;;5093117;28;20036;-78
2021/11/06 10:33:17;;;;;;;7.50;5.05;;;11.10;80.60;;;;;;5092483;28;20021;-76
2021/11/06 10:39:09;;;;;;;5.93;4.65;;;11.10;80.40;;;;;;5076875;28;20105;-77
2021/11/06 10:45:15;;;;;;;7.25;4.88;;;11.20;80.40;;;;;;5076503;28;20039;-77
2021/11/06 10:47:53;;;;;;;6.78;4.70;;;11.20;80.10;;;;;;5092241;28;20028;-76
2021/11/06 10:50:37;;;;;;;10.43;5.07;;;11.30;80.10;;;;;;5109231;28;20508;-74
2021/11/06 10:53:02;;;;;;;;;;;11.30;80.00;;;;;;5076815;28;20036;-75
2021/11/06 10:55:37;;;;;;;7.13;5.00;;;11.30;79.90;;;;;;5091830;28;19915;-75
2021/11/06 10:58:17;;;;;;;7.78;5.10;;;11.30;79.90;;;;;;5076420;28;20369;-77
2021/11/06 11:00:54;;;;;;;7.22;5.20;;;11.40;79.90;;;;;;5091872;28;20044;-76
2021/11/06 11:03:35;;;;;;;5.85;4.55;;;11.40;79.80;;;;;;5092282;28;20028;-77
2021/11/06 11:06:09;;;;;;;5.30;4.30;;;11.40;79.70;;;;;;5091883;28;20028;-78
2021/11/06 11:08:49;;;;;;;5.70;4.57;;;11.50;79.70;;;;;;5077134;28;20479;-75
2021/11/06 11:11:21;;;;;;;8.50;4.72;;;11.60;79.60;;;;;;5091901;28;20336;-82
2021/11/06 11:13:55;;;;;;;7.55;4.68;;;11.60;79.50;;;;;;5076869;28;20036;-75
2021/11/06 11:16:22;;;;;;;6.88;4.50;;;11.60;79.30;;;;;;5092123;28;20499;-76
2021/11/06 11:18:50;;;;;;;6.07;4.07;;;11.60;79.20;;;;;;5091844;28;20024;-78
2021/11/06 11:21:27;;;;;;;5.22;3.47;;;11.70;79.10;;;;;;5091599;28;20484;-75
2021/11/06 11:24:02;;;;;;;4.03;3.55;;;11.70;79.10;;;;;;5075912;28;20020;-76
2021/11/06 11:26:42;;;;;;;6.53;3.65;;;11.70;79.10;;;;;;5091486;28;20025;-75
2021/11/06 11:29:11;;;;;;;6.07;3.53;;;11.70;79.00;;;;;;5075968;28;20025;-78
2021/11/06 11:31:38;;;;;;;4.32;3.60;;;11.80;79.10;;;;;;5076697;28;20025;-73
2021/11/06 11:34:08;;;;;;;5.18;3.25;;;11.90;79.00;;;;;;5091202;28;20115;-75
2021/11/06 11:36:35;;;;;;;3.90;3.28;;;11.90;78.90;;;;;;5091030;28;20480;-77
2021/11/06 11:39:05;;;;;;;4.82;3.03;;;11.80;78.60;;;;;;5091273;28;20020;-76
2021/11/06 11:41:43;;;;;;;7.68;3.50;;;11.80;78.50;;;;;;5091055;28;20119;-74
2021/11/06 11:48:27;;;;;;;4.55;3.22;;;11.80;78.50;;;;;;5075868;28;20115;-77
2021/11/06 11:54:14;;;;;;;5.78;3.17;;;11.90;78.00;;;;;;5053638;28;20036;-78
2021/11/06 11:56:40;;;;;;;5.45;4.10;;;11.90;78.00;;;;;;5070813;28;20384;-82
2021/11/06 11:59:06;;;;;;;9.48;4.13;;;11.90;77.40;;;;;;5093393;28;20024;-80
2021/11/06 12:01:33;;;;;;;6.03;4.10;;;11.90;77.50;;;;;;5077380;28;20110;-79
2021/11/06 12:04:16;;;;;;;5.15;3.83;;;11.90;77.50;;;;;;5091909;28;20164;-82
2021/11/06 12:06:44;;;;;;;8.15;3.97;;;11.90;77.70;;;;;;5108555;28;20044;-81
2021/11/06 12:09:16;;;;;;;7.22;3.58;;;11.80;77.60;;;;;;5108493;28;20031;-82
2021/11/06 12:11:46;;;;;;;5.03;3.60;;;11.90;77.70;;;;;;5109044;28;20029;-80
2021/11/06 12:14:42;;;;;;;5.70;4.10;;;11.90;77.40;;;;;;5075048;28;20089;-81
2021/11/06 12:17:09;;;;;;;4.90;3.80;;;12.00;77.10;;;;;;5074553;28;20040;-82
2021/11/06 12:19:41;;;;;;;7.78;3.60;;;12.00;77.30;;;;;;5076289;28;20036;-87
2021/11/06 12:22:30;;;;;;;6.63;3.70;;;12.10;77.20;;;;;;5092008;28;20017;-83
2021/11/06 12:25:16;;;;;;;6.35;3.70;;;12.20;77.00;;;;;;5093446;28;20020;-80
2021/11/06 12:27:53;;;;;;;4.40;3.60;;;12.20;76.80;;;;;;5091923;28;20023;-80
2021/11/06 12:33:45;;;;;;;6.43;3.72;;;12.40;76.90;;;;;;5077484;28;20184;-81
2021/11/06 12:36:22;;;;;;;7.40;3.45;;;12.40;76.60;;;;;;5094750;28;20116;-82
2021/11/06 12:38:49;;;;;;;4.90;3.80;;;12.40;76.40;;;;;;5091537;28;20524;-78
2021/11/06 12:41:28;;;;;;;5.30;3.80;;;12.40;76.60;;;;;;5080403;28;20035;-80
2021/11/06 12:43:55;;;;;;;5.55;3.45;;;12.50;76.70;;;;;;5090051;28;20425;-81
2021/11/06 12:47:10;;;;;;;4.50;3.30;;;12.50;76.80;;;;;;5090850;28;20480;-79
2021/11/06 12:49:36;;;;;;;5.90;3.80;;;12.50;76.60;;;;;;5091165;28;20016;-83
2021/11/06 12:52:04;;;;;;;5.35;3.40;;;12.40;76.80;;;;;;5074901;28;20031;-80
2021/11/06 12:54:30;;;;;;;5.95;3.40;;;12.40;76.90;;;;;;5089926;28;20115;-79
2021/11/06 12:56:56;;;;;;;4.18;3.42;;;12.40;77.00;;;;;;5092526;28;20063;-77
2021/11/06 12:59:22;;;;;;;4.30;3.20;;;12.40;77.20;;;;;;5074416;28;20032;-78
2021/11/06 13:05:10;;;;;;;5.88;3.45;;;12.40;77.40;;;;;;5073940;28;20035;-77
2021/11/06 13:07:35;;;;;;;5.05;4.00;;;12.40;77.40;;;;;;5073955;28;20447;-75
2021/11/06 13:10:15;;;;;;;5.28;3.75;;;12.30;77.20;;;;;;5073778;28;20086;-78
2021/11/06 13:12:41;;;;;;;6.35;4.10;;;12.40;77.30;;;;;;5089596;28;20024;-78
2021/11/06 13:15:07;;;;;;;7.85;4.13;;;12.40;77.30;;;;;;5089195;28;20539;-76
2021/11/06 13:17:34;;;;;;;5.07;3.88;;;12.40;77.40;;;;;;5073596;28;20032;-77
2021/11/06 13:20:06;;;;;;;7.25;3.83;;;12.40;77.40;;;;;;5079109;28;20032;-77
2021/11/06 13:22:32;;;;;;;6.45;4.22;;;12.40;77.40;;;;;;5073667;28;20062;-77
2021/11/06 13:25:16;;;;;;;4.75;3.97;;;12.40;77.50;;;;;;5106250;28;20187;-77
2021/11/06 13:27:51;;;;;;;4.10;3.60;;;12.40;77.40;;;;;;5089388;28;20055;-78
2021/11/06 13:30:46;;;;;;;5.07;4.10;;;12.40;77.50;;;;;;5088982;28;20488;-76
2021/11/06 13:33:17;;;;;;;5.30;4.00;;;12.40;77.50;;;;;;5073329;28;20024;-75
2021/11/06 13:39:06;;;;;;;4.13;3.72;;;12.30;77.70;;;;;;5073292;28;20061;-75